Time;durP1;ratioP1;P1;durP2;ratioP2;P2;SDS_P1;SDS_P2;PMS_P1;PMS_P2;Temp;Humidity;BMP_temperature;BMP_pressure;BME280_temperature;BME280_humidity;BME280_pressure;Samples;Min_cycle;Max_cycle;Signal;HPM_P1;HPM_P2
2023/03/26 00:01:36;;;;;;;8.55;2.47;;;8.20;99.90;;;7.84;100.00;99549.00;4887617;29;20037;-76
2023/03/26 00:04:05;;;;;;;7.90;2.50;;;8.10;99.90;;;8.14;100.00;99592.53;4881538;29;20066;-77
2023/03/26 00:06:37;;;;;;;9.05;2.67;;;8.10;99.90;;;8.08;100.00;99604.31;4879771;29;20052;-75
2023/03/26 00:09:07;;;;;;;6.30;2.72;;;8.20;99.90;;;8.30;100.00;99592.97;4878583;29;20068;-75
2023/03/26 00:11:33;;;;;;;5.40;2.80;;;8.30;99.90;;;8.34;100.00;99602.34;4877663;29;20383;-76
2023/03/26 00:13:59;;;;;;;7.00;2.42;;;8.30;99.90;;;8.17;100.00;99586.63;4872944;29;20078;-76
2023/03/26 00:16:29;;;;;;;6.63;2.33;;;8.30;99.90;;;8.21;100.00;99606.03;4877379;29;20112;-75
2023/03/26 00:18:56;;;;;;;11.70;2.63;;;8.30;99.90;;;8.27;100.00;99604.31;4857781;29;20034;-76
2023/03/26 00:21:27;;;;;;;11.13;3.30;;;8.30;99.90;;;8.24;100.00;99618.34;4875429;29;20037;-76
2023/03/26 00:24:03;;;;;;;5.65;2.92;;;8.30;99.90;;;8.24;100.00;99621.88;4876746;29;20509;-76
2023/03/26 00:26:30;;;;;;;6.88;3.38;;;8.30;99.90;;;8.08;100.00;99626.03;4876645;29;20045;-76
2023/03/26 00:28:57;;;;;;;6.72;3.22;;;8.20;99.90;;;8.04;100.00;99597.66;4876203;29;20053;-76
2023/03/26 00:31:23;;;;;;;6.57;3.35;;;8.20;99.90;;;8.11;100.00;99609.28;4875729;29;20057;-76
2023/03/26 00:33:54;;;;;;;9.25;4.10;;;8.20;99.90;;;8.09;100.00;99615.97;4851718;29;20029;-76
2023/03/26 00:36:24;;;;;;;9.50;3.70;;;8.20;99.90;;;7.96;100.00;99608.84;4877029;29;20053;-75
2023/03/26 00:38:51;;;;;;;8.27;3.60;;;8.10;99.90;;;8.06;100.00;99620.00;4861376;29;20085;-76
2023/03/26 00:41:23;;;;;;;6.75;3.63;;;8.10;99.90;;;7.94;100.00;99621.78;4858725;29;20136;-76
2023/03/26 00:43:55;;;;;;;9.10;3.30;;;8.10;99.90;;;7.77;100.00;99617.75;4875774;29;20064;-76
2023/03/26 00:46:22;;;;;;;6.35;3.53;;;8.10;99.90;;;7.93;100.00;99634.53;4875904;29;20037;-76
2023/03/26 00:48:49;;;;;;;5.55;3.05;;;8.10;99.90;;;7.86;100.00;99615.59;4876764;29;20069;-76
2023/03/26 00:51:17;;;;;;;8.20;3.15;;;8.00;99.90;;;7.88;100.00;99631.69;4876142;29;20564;-76
2023/03/26 00:53:45;;;;;;;10.07;3.08;;;8.00;99.90;;;7.70;100.00;99622.44;4872788;29;20045;-76
2023/03/26 00:56:12;;;;;;;7.13;2.40;;;8.00;99.90;;;7.57;100.00;99623.38;4875972;29;20497;-75
2023/03/26 00:58:38;;;;;;;6.57;2.05;;;8.00;99.90;;;7.43;100.00;99633.53;4859334;29;20802;-76
2023/03/26 01:01:09;;;;;;;4.55;2.03;;;7.90;99.90;;;7.46;100.00;99635.78;4876274;29;20505;-76
2023/03/26 01:03:37;;;;;;;4.60;1.80;;;7.80;99.90;;;7.15;100.00;99618.50;4876858;29;20545;-76
2023/03/26 01:06:11;;;;;;;4.40;1.90;;;7.60;99.90;;;7.24;100.00;99650.78;4845912;29;20053;-76
2023/03/26 01:08:45;;;;;;;6.53;2.35;;;7.50;99.90;;;7.35;100.00;99636.50;4876400;29;20038;-76
2023/03/26 01:11:20;;;;;;;7.65;2.85;;;7.50;99.90;;;7.34;100.00;99641.09;4876460;29;20044;-76
2023/03/26 01:13:56;;;;;;;6.78;2.53;;;7.50;99.90;;;7.47;100.00;99656.44;4876174;29;20500;-75
2023/03/26 01:16:45;;;;;;;7.63;2.75;;;7.50;99.90;;;7.46;100.00;99656.69;4859836;29;20481;-76
2023/03/26 01:19:36;;;;;;;8.10;2.83;;;7.50;99.90;;;7.46;100.00;99643.94;4871980;29;20033;-76
2023/03/26 01:22:04;;;;;;;7.15;2.60;;;7.50;99.90;;;7.49;100.00;99639.94;4856763;29;20045;-76
2023/03/26 01:24:30;;;;;;;7.47;3.05;;;7.50;99.90;;;7.58;100.00;99648.66;4857784;29;20111;-76
2023/03/26 01:27:30;;;;;;;7.78;2.67;;;7.50;99.90;;;7.36;100.00;99661.75;4876035;29;20116;-76
2023/03/26 01:30:24;;;;;;;7.80;3.35;;;7.50;99.90;;;7.41;100.00;99653.78;4873550;29;20108;-76
2023/03/26 01:33:35;;;;;;;9.95;2.55;;;7.50;99.90;;;7.33;100.00;99644.03;4874838;29;20033;-76
2023/03/26 01:36:16;;;;;;;7.13;2.72;;;7.40;99.90;;;7.12;100.00;99618.09;4876219;29;20037;-76
2023/03/26 01:39:17;;;;;;;6.20;2.25;;;7.40;99.90;;;7.33;100.00;99657.63;4872680;29;20489;-75
2023/03/26 01:42:16;;;;;;;8.48;2.33;;;7.50;99.90;;;7.20;100.00;99639.53;4853893;29;20037;-76
2023/03/26 01:44:59;;;;;;;9.80;2.58;;;7.40;99.90;;;7.22;100.00;99644.72;4843707;29;20038;-75
2023/03/26 01:47:26;;;;;;;8.32;2.20;;;7.40;99.90;;;7.37;100.00;99649.84;4844118;29;20439;-76
2023/03/26 01:49:52;;;;;;;8.43;2.08;;;7.50;99.90;;;7.34;100.00;99643.81;4860012;29;20037;-75
2023/03/26 01:52:24;;;;;;;8.88;2.33;;;7.50;99.90;;;7.19;100.00;99621.59;4875199;29;20107;-76
2023/03/26 01:54:50;;;;;;;7.50;1.95;;;7.50;99.90;;;7.33;100.00;99653.00;4875825;29;20553;-76
2023/03/26 01:57:27;;;;;;;7.30;2.05;;;7.40;99.90;;;7.28;100.00;99643.84;4858345;29;20080;-75
2023/03/26 02:00:30;;;;;;;4.93;1.70;;;7.40;99.90;;;7.26;100.00;99643.25;4832810;29;20097;-75
2023/03/26 02:03:26;;;;;;;6.45;1.77;;;7.30;99.90;;;7.27;100.00;99648.47;4876591;29;20116;-76
2023/03/26 02:06:29;;;;;;;10.30;2.15;;;7.30;99.90;;;7.24;100.00;99637.19;4857680;29;20516;-76
2023/03/26 02:09:05;;;;;;;5.63;1.50;;;7.30;99.90;;;7.24;100.00;99643.47;4862435;29;20033;-75
2023/03/26 02:11:32;;;;;;;6.18;1.58;;;7.30;99.90;;;7.25;100.00;99637.00;4850127;29;20033;-76
2023/03/26 02:13:58;;;;;;;6.88;1.60;;;7.30;99.90;;;7.22;100.00;99634.72;4879146;29;20033;-76
2023/03/26 02:16:24;;;;;;;6.28;1.67;;;7.30;99.90;;;7.18;100.00;99638.94;4853959;29;20057;-76
2023/03/26 02:18:54;;;;;;;6.32;1.40;;;7.20;99.90;;;7.17;100.00;99634.56;4879124;29;20044;-76
2023/03/26 02:21:24;;;;;;;4.68;1.50;;;7.20;99.90;;;7.06;100.00;99622.53;4878676;29;20136;-76
2023/03/26 02:24:01;;;;;;;5.78;1.50;;;7.20;99.90;;;7.02;100.00;99635.69;4850522;29;20478;-76
2023/03/26 02:26:31;;;;;;;6.28;1.23;;;7.10;99.90;;;6.93;100.00;99628.03;4862895;29;20040;-76
2023/03/26 02:29:10;;;;;;;5.85;1.45;;;7.00;99.90;;;6.86;100.00;99637.03;4846087;29;20077;-77
2023/03/26 02:31:38;;;;;;;5.10;1.40;;;7.00;99.90;;;6.81;100.00;99617.88;4875754;29;20037;-75
2023/03/26 02:34:04;;;;;;;8.70;1.55;;;6.90;99.90;;;6.72;100.00;99627.28;4836243;29;20037;-76
2023/03/26 02:36:34;;;;;;;6.53;1.30;;;6.90;99.90;;;6.75;100.00;99633.13;4853085;29;20373;-75
2023/03/26 02:39:02;;;;;;;5.50;1.52;;;6.90;99.90;;;6.84;100.00;99636.41;4858296;29;20085;-75
2023/03/26 02:41:32;;;;;;;4.65;1.25;;;7.00;99.90;;;6.91;100.00;99634.50;4849816;29;20394;-75
2023/03/26 02:44:02;;;;;;;5.45;1.23;;;7.00;99.90;;;6.86;100.00;99633.47;4851655;29;20038;-75
2023/03/26 02:47:00;;;;;;;4.82;1.20;;;7.10;99.90;;;7.09;100.00;99630.22;4860056;29;20060;-75
2023/03/26 02:49:58;;;;;;;5.78;1.15;;;7.10;99.90;;;7.00;100.00;99612.53;4876699;29;20391;-76
2023/03/26 02:52:35;;;;;;;4.53;1.40;;;7.10;99.90;;;7.13;100.00;99620.59;4845346;29;20029;-75
2023/03/26 02:55:01;;;;;;;5.78;1.38;;;7.10;99.90;;;7.10;100.00;99622.91;4851191;29;20045;-76
2023/03/26 02:57:27;;;;;;;4.03;0.90;;;7.10;99.90;;;7.18;100.00;99626.19;4861860;29;20482;-75
2023/03/26 03:00:13;;;;;;;5.75;1.10;;;7.20;99.90;;;7.27;100.00;99624.03;4863543;29;20430;-75
2023/03/26 03:02:48;;;;;;;4.35;1.20;;;7.30;99.90;;;7.18;100.00;99618.06;4878776;29;20109;-75
2023/03/26 03:05:31;;;;;;;8.35;1.30;;;7.30;99.90;;;7.29;100.00;99624.66;4871408;29;20103;-75
2023/03/26 03:08:19;;;;;;;5.13;0.95;;;7.30;99.90;;;7.28;100.00;99623.00;4869208;29;20144;-75
2023/03/26 03:11:05;;;;;;;3.50;1.00;;;7.40;99.90;;;7.32;100.00;99612.53;4850672;29;20068;-76
2023/03/26 03:13:43;;;;;;;4.10;1.77;;;7.40;99.90;;;7.37;100.00;99625.41;4876882;29;20032;-76
2023/03/26 03:16:09;;;;;;;7.50;1.52;;;7.40;99.90;;;7.37;100.00;99611.84;4849732;29;20037;-76
2023/03/26 03:18:36;;;;;;;5.15;1.17;;;7.40;99.90;;;7.29;100.00;99608.38;4848388;29;20037;-76
2023/03/26 03:21:04;;;;;;;4.07;1.50;;;7.30;99.90;;;7.40;100.00;99620.41;4842121;29;20041;-77
2023/03/26 03:23:30;;;;;;;;;;;7.30;99.90;;;7.45;100.00;99609.69;4876693;29;20438;-76
2023/03/26 03:26:20;;;;;;;9.40;2.17;;;7.30;99.90;;;7.33;100.00;99601.44;4848743;29;20380;-75
2023/03/26 03:28:50;;;;;;;8.00;1.50;;;7.30;99.90;;;7.28;100.00;99597.72;4855269;29;20521;-76
2023/03/26 03:31:16;;;;;;;6.20;1.27;;;7.20;99.90;;;7.19;100.00;99605.31;4853955;29;20045;-76
2023/03/26 03:33:45;;;;;;;3.25;1.00;;;7.10;99.90;;;7.09;100.00;99597.69;4877211;29;20124;-76
2023/03/26 03:36:13;;;;;;;3.47;1.02;;;7.00;99.90;;;7.10;100.00;99606.63;4849995;29;20061;-76
2023/03/26 03:38:41;;;;;;;4.18;1.13;;;7.00;99.90;;;7.07;100.00;99604.34;4859770;29;20086;-76
2023/03/26 03:41:10;;;;;;;4.03;0.85;;;7.00;99.90;;;7.04;100.00;99584.75;4862097;29;20078;-76
2023/03/26 03:43:40;;;;;;;6.18;1.00;;;7.00;99.90;;;7.14;99.55;99597.00;4859039;29;20049;-76
2023/03/26 03:46:11;;;;;;;5.00;0.88;;;7.10;99.90;;;7.24;98.02;99593.81;4845963;29;20074;-76
2023/03/26 03:48:47;;;;;;;5.30;1.13;;;7.10;99.90;;;7.29;97.30;99608.38;4846582;29;20132;-76
2023/03/26 03:51:13;;;;;;;5.90;1.00;;;7.10;99.90;;;7.27;96.02;99602.34;4877069;29;20048;-76
2023/03/26 03:53:48;;;;;;;5.20;1.10;;;7.20;99.90;;;7.24;95.65;99607.38;4863244;29;20409;-76
2023/03/26 03:56:23;;;;;;;3.38;0.95;;;7.20;99.90;;;7.27;95.87;99599.63;4849984;29;20209;-76
2023/03/26 03:59:16;;;;;;;4.50;1.00;;;7.20;99.90;;;7.01;98.15;99612.31;4868195;29;20060;-76
2023/03/26 04:01:45;;;;;;;5.35;1.45;;;7.10;99.90;;;7.25;99.47;99601.72;4860332;29;20131;-76
2023/03/26 04:04:20;;;;;;;5.75;1.27;;;7.00;99.90;;;6.94;100.00;99616.97;4855678;29;20044;-76
2023/03/26 04:07:08;;;;;;;6.95;1.05;;;6.90;99.90;;;6.68;100.00;99591.69;4871990;29;20120;-76
2023/03/26 04:10:01;;;;;;;6.68;1.35;;;6.80;99.90;;;6.65;100.00;99615.66;4872295;29;20049;-76
2023/03/26 04:12:35;;;;;;;6.32;1.27;;;6.70;99.90;;;6.60;100.00;99613.59;4857142;29;20464;-75
2023/03/26 04:15:02;;;;;;;2.60;1.20;;;6.60;99.90;;;6.64;100.00;99609.44;4856715;29;20505;-76
2023/03/26 04:17:29;;;;;;;6.75;1.55;;;6.60;99.90;;;6.67;100.00;99617.13;4865033;29;20044;-76
2023/03/26 04:19:55;;;;;;;4.60;1.60;;;6.50;99.90;;;6.58;100.00;99623.81;4859200;29;20130;-76
2023/03/26 04:22:33;;;;;;;8.60;1.70;;;6.40;99.90;;;6.41;100.00;99608.06;4845665;29;20041;-76
2023/03/26 04:25:01;;;;;;;9.27;2.22;;;6.40;99.90;;;6.48;100.00;99622.41;4848989;29;20059;-75
2023/03/26 04:27:40;;;;;;;5.72;1.55;;;6.30;99.90;;;6.53;100.00;99632.63;4875190;29;20123;-76
2023/03/26 04:30:26;;;;;;;5.88;1.55;;;6.40;99.90;;;6.29;100.00;99604.34;4874554;29;20462;-76
2023/03/26 04:33:14;;;;;;;6.50;1.60;;;6.30;99.90;;;6.37;100.00;99625.81;4875875;29;20076;-76
2023/03/26 04:35:40;;;;;;;;;;;6.40;99.90;;;6.52;100.00;99608.44;4859989;29;20044;-76
2023/03/26 04:38:10;;;;;;;5.95;1.48;;;6.60;99.90;;;6.76;100.00;99615.81;4859724;29;19995;-76
2023/03/26 04:40:41;;;;;;;4.68;1.50;;;6.70;99.90;;;6.83;100.00;99606.81;4850418;29;20100;-76
2023/03/26 04:43:26;;;;;;;7.07;1.77;;;6.80;99.90;;;6.84;100.00;99603.03;4871498;29;20034;-75
2023/03/26 04:46:04;;;;;;;6.30;1.70;;;6.80;99.90;;;6.86;100.00;99611.78;4875735;29;20079;-75
2023/03/26 04:48:37;;;;;;;5.63;1.40;;;6.90;99.90;;;6.97;100.00;99611.09;4854815;29;20059;-78
2023/03/26 04:51:06;;;;;;;6.80;1.30;;;6.90;99.90;;;7.17;100.00;99605.53;4844570;29;20567;-75
2023/03/26 04:53:33;;;;;;;7.93;1.83;;;7.00;99.90;;;7.09;100.00;99591.41;4847314;29;20101;-75
2023/03/26 04:57:00;;;;;;;7.05;1.40;;;7.00;99.90;;;7.29;100.00;99599.38;4843582;29;20585;-74
2023/03/26 04:59:49;;;;;;;7.22;1.40;;;7.00;99.90;;;7.33;100.00;99592.50;4831691;29;20037;-74
2023/03/26 05:02:14;;;;;;;4.18;1.52;;;7.00;99.90;;;7.30;100.00;99593.75;4830086;29;20057;-74
2023/03/26 05:05:08;;;;;;;4.47;1.38;;;7.10;99.90;;;7.25;100.00;99593.59;4873220;29;20045;-74
2023/03/26 05:07:35;;;;;;;6.93;1.30;;;7.00;99.90;;;7.13;100.00;99584.50;4846302;29;20033;-76
2023/03/26 05:10:02;;;;;;;7.32;1.65;;;7.00;99.90;;;7.17;100.00;99599.28;4855943;29;20121;-77
2023/03/26 05:12:37;;;;;;;4.47;1.20;;;7.00;99.90;;;7.18;99.89;99558.38;4854325;29;20484;-76
2023/03/26 05:15:10;;;;;;;7.90;1.52;;;7.00;99.90;;;7.26;99.08;99580.84;4859714;29;20044;-76
2023/03/26 05:17:54;;;;;;;5.78;1.10;;;7.10;99.90;;;7.30;99.54;99591.03;4846078;29;20149;-73
2023/03/26 05:20:35;;;;;;;5.28;1.10;;;7.20;99.90;;;7.23;99.72;99589.44;4872464;29;20041;-73
2023/03/26 05:23:03;;;;;;;9.40;1.23;;;7.20;99.90;;;7.35;99.79;99590.38;4861945;29;20034;-77
2023/03/26 05:25:33;;;;;;;5.10;1.60;;;7.20;99.90;;;7.59;99.22;99590.59;4844744;29;20136;-74
2023/03/26 05:28:01;;;;;;;7.28;1.40;;;7.20;99.90;;;7.37;99.50;99588.28;4846881;29;20045;-74
2023/03/26 05:30:35;;;;;;;6.95;1.65;;;7.30;99.90;;;7.47;100.00;99593.22;4860148;29;20045;-75
2023/03/26 05:33:03;;;;;;;5.82;1.50;;;7.30;99.90;;;7.68;100.00;99593.84;4850395;29;20064;-75
2023/03/26 05:35:35;;;;;;;4.53;1.50;;;7.30;99.90;;;7.37;100.00;99579.28;4879690;29;20096;-75
2023/03/26 05:38:01;;;;;;;5.68;1.52;;;7.30;99.90;;;7.32;100.00;99590.84;4852553;29;20038;-76
2023/03/26 05:40:27;;;;;;;3.50;1.60;;;7.20;99.90;;;7.52;100.00;99571.66;4866386;29;20064;-75
2023/03/26 05:42:56;;;;;;;6.10;1.58;;;7.20;99.90;;;7.36;100.00;99588.47;4863303;29;20037;-75
2023/03/26 05:45:48;;;;;;;7.85;1.80;;;7.20;99.90;;;7.20;100.00;99577.97;4875667;29;20045;-74
2023/03/26 05:48:22;;;;;;;5.93;1.73;;;7.20;99.90;;;7.33;100.00;99579.75;4833870;29;20374;-75
2023/03/26 05:50:51;;;;;;;3.88;1.65;;;7.20;99.90;;;7.40;100.00;99592.41;4878845;29;20452;-76
2023/03/26 05:53:19;;;;;;;9.27;2.15;;;7.30;99.90;;;7.43;100.00;99600.13;4872400;29;20052;-76
2023/03/26 05:56:04;;;;;;;7.30;2.10;;;7.30;99.90;;;7.59;100.00;99594.13;4873678;29;20450;-76
2023/03/26 05:58:48;;;;;;;7.93;1.80;;;7.40;99.90;;;7.51;100.00;99586.28;4878417;29;20100;-74
2023/03/26 06:01:50;;;;;;;6.93;2.10;;;7.50;99.90;;;7.84;100.00;99576.16;4820739;29;20050;-75
2023/03/26 06:04:34;;;;;;;8.50;2.38;;;7.50;99.90;;;7.68;100.00;99578.38;4849863;29;20048;-75
2023/03/26 06:07:27;;;;;;;10.68;2.50;;;7.60;99.90;;;7.83;100.00;99580.75;4874198;29;20072;-74
2023/03/26 06:10:06;;;;;;;12.40;2.67;;;7.60;99.90;;;7.93;100.00;99585.66;4875526;29;20043;-74
2023/03/26 06:12:32;;;;;;;6.75;2.40;;;7.70;99.90;;;7.76;100.00;99569.94;4848506;29;20041;-74
2023/03/26 06:14:57;;;;;;;7.78;2.42;;;7.70;99.90;;;7.92;100.00;99575.84;4850879;29;20041;-75
2023/03/26 06:17:54;;;;;;;14.48;2.80;;;7.70;99.90;;;7.88;100.00;99582.78;4858152;29;20096;-74
2023/03/26 06:20:49;;;;;;;6.35;2.20;;;7.70;99.90;;;7.74;100.00;99541.38;4879361;29;20052;-74
2023/03/26 06:23:41;;;;;;;7.32;2.90;;;7.70;99.90;;;7.26;100.00;99484.03;4873048;29;20039;-75
2023/03/26 06:26:14;;;;;;;9.13;2.58;;;7.80;99.90;;;7.69;100.00;99549.34;4855013;29;20375;-74
2023/03/26 06:29:02;;;;;;;8.55;3.13;;;7.80;99.90;;;7.70;100.00;99573.56;4875027;29;20041;-75
2023/03/26 06:31:36;;;;;;;7.80;2.88;;;7.70;99.90;;;7.88;100.00;99574.66;4865376;29;20168;-74
2023/03/26 06:34:16;;;;;;;10.80;2.70;;;7.80;99.90;;;7.81;100.00;99569.28;4851973;29;20077;-75
2023/03/26 06:37:26;;;;;;;7.57;2.55;;;7.80;99.90;;;7.99;100.00;99579.31;4856831;29;20053;-74
2023/03/26 06:40:05;;;;;;;9.57;2.50;;;7.80;99.90;;;7.78;100.00;99545.31;4843443;29;20059;-74
2023/03/26 06:42:56;;;;;;;8.30;2.50;;;7.90;99.90;;;7.81;100.00;99566.56;4864174;29;20375;-73
2023/03/26 06:45:52;;;;;;;10.20;2.30;;;7.90;99.90;;;7.91;100.00;99563.34;4847272;29;20382;-74
2023/03/26 06:48:44;;;;;;;5.88;2.40;;;7.90;99.90;;;7.98;100.00;99560.56;4848690;29;20034;-75
2023/03/26 06:51:38;;;;;;;9.38;2.67;;;8.00;99.90;;;7.96;100.00;99562.66;4851959;29;20103;-74
2023/03/26 06:54:16;;;;;;;8.82;2.47;;;8.00;99.90;;;8.17;100.00;99562.19;4856613;29;20045;-73
2023/03/26 06:56:55;;;;;;;10.50;2.50;;;8.10;99.90;;;8.33;99.39;99554.47;4848471;29;20080;-76
2023/03/26 06:59:40;;;;;;;6.60;2.20;;;8.10;99.90;;;8.54;98.95;99558.63;4875024;29;20052;-74
2023/03/26 07:02:28;;;;;;;10.00;2.53;;;8.20;99.90;;;8.23;96.14;99556.91;4834493;29;20069;-74
2023/03/26 07:05:13;;;;;;;7.82;2.10;;;8.20;99.90;;;8.53;96.88;99556.16;4877295;29;20331;-74
2023/03/26 07:07:57;;;;;;;8.07;2.00;;;8.30;99.90;;;8.57;96.78;99552.72;4878047;29;20825;-74
2023/03/26 07:11:01;;;;;;;7.35;2.05;;;8.40;99.90;;;8.78;92.61;99505.16;4876429;29;20048;-74
2023/03/26 07:13:33;;;;;;;6.60;1.95;;;8.60;99.90;;;9.06;92.09;99544.47;4872075;29;20064;-74
2023/03/26 07:16:27;;;;;;;9.38;2.30;;;8.80;99.90;;;9.02;92.44;99547.88;4875846;29;20128;-74
2023/03/26 07:19:06;;;;;;;;;;;8.80;99.90;;;9.34;91.43;99536.69;4862347;29;20044;-74
2023/03/26 07:21:35;;;;;;;6.70;2.00;;;9.00;99.90;;;9.30;90.20;99536.34;4860525;29;20317;-74
2023/03/26 07:24:12;;;;;;;7.15;2.15;;;9.10;99.90;;;9.52;87.36;99524.84;4863354;29;20056;-74
2023/03/26 07:27:16;;;;;;;9.98;2.15;;;9.20;99.90;;;9.32;88.53;99527.94;4877622;29;20118;-75
2023/03/26 07:29:58;;;;;;;6.32;2.22;;;9.10;99.90;;;8.65;90.61;99521.66;4837193;29;20054;-74
2023/03/26 07:33:17;;;;;;;7.30;2.20;;;8.80;99.90;;;8.87;90.30;99515.69;4840972;29;20054;-75
2023/03/26 07:36:47;;;;;;;5.65;1.92;;;8.90;99.90;;;9.25;87.55;99508.16;4801194;29;20050;-75
2023/03/26 07:40:32;;;;;;;11.50;2.10;;;9.00;99.90;;;9.33;86.15;99510.53;4789873;29;20084;-73
2023/03/26 07:43:45;;;;;;;12.10;1.73;;;9.30;99.90;;;9.49;86.37;99512.56;4820370;29;20034;-73
2023/03/26 07:46:35;;;;;;;5.97;1.75;;;9.40;99.90;;;10.08;84.48;99508.91;4841765;29;20061;-75
2023/03/26 07:49:22;;;;;;;7.60;1.80;;;9.70;99.90;;;10.19;83.38;99517.25;4839786;29;20038;-74
2023/03/26 07:52:09;;;;;;;8.18;2.33;;;9.90;99.90;;;9.77;81.87;99507.41;4838501;29;20175;-74
2023/03/26 07:54:59;;;;;;;5.07;1.60;;;9.90;99.90;;;9.55;83.91;99513.50;4822874;29;20128;-74
2023/03/26 07:58:07;;;;;;;6.15;1.85;;;9.70;99.90;;;9.79;82.23;99505.28;4840508;29;20064;-73
2023/03/26 08:01:13;;;;;;;7.50;1.70;;;9.90;99.90;;;10.26;79.61;99493.44;4837389;29;20038;-74
2023/03/26 08:04:20;;;;;;;8.68;1.80;;;10.10;99.90;;;9.95;80.39;99500.16;4824822;29;20030;-74
2023/03/26 08:07:52;;;;;;;11.85;2.47;;;10.20;99.90;;;10.50;78.74;99496.91;4810800;29;20047;-75
2023/03/26 08:11:13;;;;;;;5.65;1.58;;;10.40;99.90;;;9.95;78.26;99490.13;4838476;29;20042;-74
2023/03/26 08:14:21;;;;;;;5.70;1.80;;;10.60;99.90;;;10.61;78.80;99491.66;4822991;29;20035;-75
2023/03/26 08:17:00;;;;;;;;;;;10.60;99.90;;;10.78;76.42;99478.03;4838705;29;20113;-76
2023/03/26 08:19:40;;;;;;;8.10;2.00;;;10.80;99.90;;;10.50;75.64;99475.09;4840334;29;19921;-74
2023/03/26 08:22:35;;;;;;;8.10;1.98;;;10.80;99.90;;;10.49;76.26;99486.25;4839610;29;20121;-75
2023/03/26 08:25:12;;;;;;;6.00;1.95;;;10.80;99.90;;;9.81;77.96;99489.53;4840016;29;20128;-74
2023/03/26 08:27:46;;;;;;;10.57;2.28;;;10.70;99.90;;;10.09;78.28;99482.50;4822586;29;20038;-73
2023/03/26 08:30:26;;;;;;;6.20;1.90;;;10.60;99.90;;;9.60;78.17;99489.09;4856041;29;20055;-74
2023/03/26 08:33:12;;;;;;;6.00;1.98;;;10.30;99.90;;;9.85;76.14;99485.28;4876924;29;20080;-74
2023/03/26 08:35:41;;;;;;;6.15;1.60;;;10.50;99.90;;;10.51;73.53;99484.13;4876281;29;20093;-75
2023/03/26 08:38:09;;;;;;;5.82;1.58;;;10.60;99.90;;;10.50;73.03;99479.75;4871979;29;20064;-75
2023/03/26 08:41:09;;;;;;;6.63;1.70;;;10.80;99.90;;;10.83;74.21;99489.03;4863467;29;20457;-75
2023/03/26 08:44:12;;;;;;;8.75;1.95;;;10.90;99.90;;;11.40;71.67;99481.72;4876375;29;20037;-75
2023/03/26 08:47:19;;;;;;;8.40;1.80;;;11.20;99.90;;;11.42;71.84;99486.94;4873456;29;20048;-75
2023/03/26 08:50:28;;;;;;;7.07;1.80;;;11.60;99.90;;;11.92;65.46;99466.03;4876705;29;20045;-74
2023/03/26 08:53:42;;;;;;;7.10;1.52;;;11.90;99.90;;;11.66;65.38;99471.97;4876599;29;20041;-76
2023/03/26 08:56:51;;;;;;;5.15;1.55;;;12.20;99.90;;;11.90;64.64;99469.00;4857449;29;20033;-74
2023/03/26 08:59:52;;;;;;;5.55;1.30;;;12.20;99.90;;;11.36;65.64;99469.66;4844418;29;20046;-74
2023/03/26 09:03:16;;;;;;;6.13;1.70;;;12.00;99.90;;;12.51;63.97;99461.75;4857580;29;20741;-75
2023/03/26 09:06:38;;;;;;;4.75;1.58;;;12.60;99.90;;;12.76;61.15;99441.19;4876645;29;20041;-75
2023/03/26 09:10:00;;;;;;;8.73;1.40;;;13.00;99.90;;;12.28;61.04;99451.97;4838998;29;20643;-75
2023/03/26 09:12:53;;;;;;;3.55;1.20;;;12.90;99.90;;;11.64;61.35;99452.28;4880291;29;20124;-73
2023/03/26 09:16:15;;;;;;;8.18;1.42;;;12.60;99.90;;;11.66;62.81;99449.31;4863591;29;20041;-74
2023/03/26 09:19:27;;;;;;;4.63;1.58;;;12.30;99.90;;;11.02;64.68;99448.69;4877763;29;20134;-75
2023/03/26 09:22:39;;;;;;;9.00;1.63;;;11.90;99.90;;;11.08;64.42;99461.31;4879466;29;20040;-74
2023/03/26 09:25:17;;;;;;;6.68;1.77;;;11.80;99.90;;;11.57;63.81;99459.03;4879128;29;20036;-74
2023/03/26 09:28:52;;;;;;;5.32;1.38;;;12.10;99.90;;;10.98;64.83;99458.44;4875212;29;20055;-75
2023/03/26 09:31:58;;;;;;;8.18;1.92;;;11.90;99.90;;;10.38;69.84;99471.59;4843427;29;20062;-74
2023/03/26 09:34:29;;;;;;;4.90;1.63;;;11.20;99.90;;;10.48;69.59;99441.00;4826747;29;20049;-74
2023/03/26 09:37:15;;;;;;;4.78;1.40;;;11.00;99.90;;;10.27;72.66;99488.81;4829070;29;20528;-73
2023/03/26 09:40:19;;;;;;;8.60;2.05;;;10.80;99.90;;;9.81;74.71;99484.06;4828578;29;20034;-73
2023/03/26 09:42:54;;;;;;;5.00;1.75;;;10.60;99.90;;;9.90;75.28;99488.09;4825497;29;20159;-73
2023/03/26 09:46:08;;;;;;;4.35;1.30;;;10.30;99.90;;;9.98;76.27;99480.59;4840661;29;20524;-74
2023/03/26 09:49:07;;;;;;;3.35;1.50;;;10.40;99.90;;;9.91;73.87;99478.84;4842339;29;20034;-73
2023/03/26 09:52:09;;;;;;;6.95;1.60;;;10.40;99.90;;;9.74;76.27;99477.94;4838535;29;20053;-73
2023/03/26 09:55:34;;;;;;;3.90;1.70;;;10.40;99.90;;;9.82;77.55;99490.38;4841507;29;20106;-74
2023/03/26 09:58:40;;;;;;;5.70;1.92;;;10.40;99.90;;;9.43;83.97;99474.56;4838156;29;20046;-74
2023/03/26 10:01:11;;;;;;;10.52;2.33;;;10.20;99.90;;;10.30;84.34;99497.34;4842338;29;20041;-73
2023/03/26 10:03:46;;;;;;;7.72;1.98;;;10.60;99.90;;;10.81;82.58;99493.06;4842341;29;20045;-73
2023/03/26 10:06:43;;;;;;;10.05;2.55;;;11.00;99.90;;;11.42;78.76;99467.84;4842875;29;20062;-73
2023/03/26 10:09:49;;;;;;;9.45;2.05;;;11.60;99.90;;;11.58;75.12;99468.88;4841932;29;20046;-73
2023/03/26 10:13:03;;;;;;;8.70;2.28;;;12.10;99.90;;;10.25;79.41;99466.41;4838477;29;20038;-73
2023/03/26 10:16:08;;;;;;;11.75;2.40;;;11.30;99.90;;;10.04;81.66;99471.47;4820780;29;20066;-73
2023/03/26 10:19:11;;;;;;;7.05;2.38;;;10.90;99.90;;;10.15;81.48;99476.06;4827499;29;20517;-73
2023/03/26 10:22:14;;;;;;;8.25;2.30;;;10.80;99.90;;;10.07;82.52;99473.69;4839822;29;20042;-74
2023/03/26 10:25:18;;;;;;;9.73;2.55;;;10.70;99.90;;;9.77;82.90;99472.00;4840727;29;20033;-74
2023/03/26 10:28:14;;;;;;;10.02;3.00;;;10.50;99.90;;;9.78;82.92;99452.72;4819676;29;20105;-73
2023/03/26 10:31:19;;;;;;;8.00;2.78;;;10.40;99.90;;;10.23;83.93;99472.13;4837923;29;20098;-73
2023/03/26 10:34:08;;;;;;;10.75;3.15;;;10.60;99.90;;;9.96;81.60;99460.94;4838830;29;20466;-73
2023/03/26 10:37:09;;;;;;;10.45;3.00;;;10.80;99.90;;;10.45;82.12;99466.81;4839618;29;20124;-73
2023/03/26 10:40:18;;;;;;;8.60;2.85;;;10.70;99.90;;;10.57;79.84;99469.50;4839364;29;20034;-73
2023/03/26 10:43:40;;;;;;;6.97;2.97;;;11.00;99.90;;;10.53;78.02;99446.53;4825093;29;20099;-73
2023/03/26 10:46:58;;;;;;;9.52;2.88;;;11.20;99.90;;;10.98;77.64;99452.97;4838444;29;20034;-73
2023/03/26 10:50:25;;;;;;;8.15;2.67;;;11.50;99.90;;;11.27;75.74;99450.13;4839612;29;20153;-73
2023/03/26 10:53:11;;;;;;;10.00;2.88;;;11.60;99.90;;;11.36;74.33;99447.81;4802993;29;20039;-73
2023/03/26 10:55:44;;;;;;;9.45;2.80;;;11.80;99.90;;;11.14;75.59;99455.94;4802671;29;20123;-73
2023/03/26 10:58:28;;;;;;;6.30;2.55;;;11.60;99.90;;;11.08;74.47;99446.84;4829392;29;20148;-74
2023/03/26 11:01:01;;;;;;;8.20;2.88;;;11.70;99.90;;;10.77;76.17;99447.19;4841187;29;20054;-73
2023/03/26 11:03:50;;;;;;;7.72;2.40;;;11.30;99.90;;;10.56;76.38;99442.47;4838110;29;20046;-74
2023/03/26 11:06:37;;;;;;;7.35;2.50;;;11.00;99.90;;;10.62;78.31;99449.69;4841150;29;20451;-73
2023/03/26 11:09:38;;;;;;;9.38;2.45;;;10.90;99.90;;;10.86;74.97;99439.44;4835830;29;20053;-73
2023/03/26 11:12:20;;;;;;;5.97;2.60;;;11.10;99.90;;;10.17;74.58;99438.50;4834536;29;20042;-73
2023/03/26 11:15:10;;;;;;;8.90;2.60;;;11.00;99.90;;;10.37;75.23;99415.41;4826447;29;20074;-73
2023/03/26 11:18:17;;;;;;;8.60;2.67;;;10.90;99.90;;;10.69;75.03;99435.84;4811279;29;20488;-74
2023/03/26 11:21:08;;;;;;;7.68;2.28;;;11.00;99.90;;;11.17;74.37;99439.09;4840891;29;20134;-73
2023/03/26 11:23:46;;;;;;;9.63;2.60;;;11.40;99.90;;;11.73;72.36;99438.19;4842002;29;20035;-73
2023/03/26 11:26:22;;;;;;;8.18;2.85;;;11.60;99.90;;;12.71;67.66;99420.06;4834818;29;20042;-73
2023/03/26 11:29:32;;;;;;;8.02;2.97;;;12.30;99.90;;;13.28;61.28;99398.59;4837006;29;20045;-73
2023/03/26 11:32:09;;;;;;;5.75;2.20;;;13.20;99.90;;;12.96;59.37;99380.28;4840959;29;20121;-74
2023/03/26 11:34:55;;;;;;;6.65;2.50;;;14.10;99.90;;;13.36;58.46;99378.91;4839548;29;20037;-74
2023/03/26 11:37:42;;;;;;;8.95;2.97;;;14.30;99.90;;;13.28;57.87;99393.09;4823561;29;20135;-73